sensor_id;sensor_type;location;lat;lon;timestamp;temperature;humidity
56172;DHT22;42052;41.634;-0.946;2023-05-10T00:02:41;24.50;37.20
56172;DHT22;42052;41.634;-0.946;2023-05-10T00:05:27;24.50;37.20
56172;DHT22;42052;41.634;-0.946;2023-05-10T00:08:13;24.40;37.20
56172;DHT22;42052;41.634;-0.946;2023-05-10T00:10:59;24.40;37.10
56172;DHT22;42052;41.634;-0.946;2023-05-10T00:13:46;24.40;37.30
56172;DHT22;42052;41.634;-0.946;2023-05-10T00:16:32;24.40;37.40
56172;DHT22;42052;41.634;-0.946;2023-05-10T00:19:18;24.40;37.50
56172;DHT22;42052;41.634;-0.946;2023-05-10T00:22:04;24.40;37.60
56172;DHT22;42052;41.634;-0.946;2023-05-10T00:24:50;24.40;38.40
56172;DHT22;42052;41.634;-0.946;2023-05-10T00:27:36;24.40;37.50
56172;DHT22;42052;41.634;-0.946;2023-05-10T00:30:22;24.40;37.40
56172;DHT22;42052;41.634;-0.946;2023-05-10T00:33:09;24.40;37.30
56172;DHT22;42052;41.634;-0.946;2023-05-10T00:35:55;24.40;37.40
56172;DHT22;42052;41.634;-0.946;2023-05-10T00:38:41;24.40;37.40
56172;DHT22;42052;41.634;-0.946;2023-05-10T00:41:29;24.40;38.20
56172;DHT22;42052;41.634;-0.946;2023-05-10T00:44:18;24.40;37.40
56172;DHT22;42052;41.634;-0.946;2023-05-10T00:47:04;24.40;37.40
56172;DHT22;42052;41.634;-0.946;2023-05-10T00:49:50;24.30;37.40
56172;DHT22;42052;41.634;-0.946;2023-05-10T00:52:37;24.40;37.30
56172;DHT22;42052;41.634;-0.946;2023-05-10T00:55:24;24.40;37.60
56172;DHT22;42052;41.634;-0.946;2023-05-10T00:58:10;24.40;37.50
56172;DHT22;42052;41.634;-0.946;2023-05-10T01:00:56;24.30;37.30
56172;DHT22;42052;41.634;-0.946;2023-05-10T01:03:43;24.40;37.50
56172;DHT22;42052;41.634;-0.946;2023-05-10T01:06:30;24.30;37.30
56172;DHT22;42052;41.634;-0.946;2023-05-10T01:09:16;24.30;37.40
56172;DHT22;42052;41.634;-0.946;2023-05-10T01:12:03;24.30;37.40
56172;DHT22;42052;41.634;-0.946;2023-05-10T01:14:53;24.30;37.40
56172;DHT22;42052;41.634;-0.946;2023-05-10T01:17:42;24.30;37.40
56172;DHT22;42052;41.634;-0.946;2023-05-10T01:20:43;24.30;37.40
56172;DHT22;42052;41.634;-0.946;2023-05-10T01:39:10;24.20;37.40
56172;DHT22;42052;41.634;-0.946;2023-05-10T01:42:10;24.20;37.50
56172;DHT22;42052;41.634;-0.946;2023-05-10T01:48:10;24.20;37.10
56172;DHT22;42052;41.634;-0.946;2023-05-10T01:50:57;24.10;37.30
56172;DHT22;42052;41.634;-0.946;2023-05-10T01:53:46;24.20;37.50
56172;DHT22;42052;41.634;-0.946;2023-05-10T01:56:35;24.10;37.30
56172;DHT22;42052;41.634;-0.946;2023-05-10T01:59:29;24.10;37.30
56172;DHT22;42052;41.634;-0.946;2023-05-10T02:02:18;24.10;37.30
56172;DHT22;42052;41.634;-0.946;2023-05-10T02:05:06;24.10;37.30
56172;DHT22;42052;41.634;-0.946;2023-05-10T02:07:54;24.10;37.30
56172;DHT22;42052;41.634;-0.946;2023-05-10T02:10:42;24.10;37.30
56172;DHT22;42052;41.634;-0.946;2023-05-10T02:13:29;24.10;37.40
56172;DHT22;42052;41.634;-0.946;2023-05-10T02:16:18;24.10;37.40
56172;DHT22;42052;41.634;-0.946;2023-05-10T02:19:07;24.10;37.40
56172;DHT22;42052;41.634;-0.946;2023-05-10T02:21:55;24.10;37.40
56172;DHT22;42052;41.634;-0.946;2023-05-10T02:24:42;24.00;37.20
56172;DHT22;42052;41.634;-0.946;2023-05-10T02:27:29;24.00;37.20
56172;DHT22;42052;41.634;-0.946;2023-05-10T02:30:16;24.00;37.30
56172;DHT22;42052;41.634;-0.946;2023-05-10T02:33:04;24.00;37.20
56172;DHT22;42052;41.634;-0.946;2023-05-10T02:35:51;24.00;37.10
56172;DHT22;42052;41.634;-0.946;2023-05-10T02:38:38;24.00;37.20
56172;DHT22;42052;41.634;-0.946;2023-05-10T02:41:25;24.00;37.10
56172;DHT22;42052;41.634;-0.946;2023-05-10T02:44:15;24.00;37.10
56172;DHT22;42052;41.634;-0.946;2023-05-10T02:47:01;24.00;37.10
56172;DHT22;42052;41.634;-0.946;2023-05-10T02:49:48;24.00;37.90
56172;DHT22;42052;41.634;-0.946;2023-05-10T02:52:51;24.00;37.10
56172;DHT22;42052;41.634;-0.946;2023-05-10T02:55:41;24.00;37.10
56172;DHT22;42052;41.634;-0.946;2023-05-10T02:58:28;24.00;37.10
56172;DHT22;42052;41.634;-0.946;2023-05-10T03:01:14;24.00;37.10
56172;DHT22;42052;41.634;-0.946;2023-05-10T03:04:00;23.90;37.10
56172;DHT22;42052;41.634;-0.946;2023-05-10T03:06:46;23.90;37.20
56172;DHT22;42052;41.634;-0.946;2023-05-10T03:09:33;23.90;37.10
56172;DHT22;42052;41.634;-0.946;2023-05-10T03:15:18;23.90;37.00
56172;DHT22;42052;41.634;-0.946;2023-05-10T03:18:09;23.90;37.10
56172;DHT22;42052;41.634;-0.946;2023-05-10T03:20:59;23.90;37.10
56172;DHT22;42052;41.634;-0.946;2023-05-10T03:23:51;23.90;37.10
56172;DHT22;42052;41.634;-0.946;2023-05-10T03:26:40;23.90;37.10
56172;DHT22;42052;41.634;-0.946;2023-05-10T03:29:29;23.90;37.00
56172;DHT22;42052;41.634;-0.946;2023-05-10T03:32:16;23.90;37.00
56172;DHT22;42052;41.634;-0.946;2023-05-10T03:35:09;23.90;37.10
56172;DHT22;42052;41.634;-0.946;2023-05-10T03:37:56;23.90;37.20
56172;DHT22;42052;41.634;-0.946;2023-05-10T03:40:42;23.90;37.20
56172;DHT22;42052;41.634;-0.946;2023-05-10T03:43:28;23.90;37.20
56172;DHT22;42052;41.634;-0.946;2023-05-10T03:46:14;23.90;37.20
56172;DHT22;42052;41.634;-0.946;2023-05-10T03:49:00;23.90;37.20
56172;DHT22;42052;41.634;-0.946;2023-05-10T03:51:46;23.90;37.40
56172;DHT22;42052;41.634;-0.946;2023-05-10T03:54:32;23.90;37.50
56172;DHT22;42052;41.634;-0.946;2023-05-10T03:57:18;23.90;37.40
56172;DHT22;42052;41.634;-0.946;2023-05-10T04:00:05;23.80;37.50
56172;DHT22;42052;41.634;-0.946;2023-05-10T04:02:51;23.90;37.60
56172;DHT22;42052;41.634;-0.946;2023-05-10T04:05:37;23.80;37.70
56172;DHT22;42052;41.634;-0.946;2023-05-10T04:08:23;23.80;37.70
56172;DHT22;42052;41.634;-0.946;2023-05-10T04:11:10;23.80;37.70
56172;DHT22;42052;41.634;-0.946;2023-05-10T04:13:57;23.90;37.80
56172;DHT22;42052;41.634;-0.946;2023-05-10T04:16:43;23.90;37.90
56172;DHT22;42052;41.634;-0.946;2023-05-10T04:19:32;23.80;37.60
56172;DHT22;42052;41.634;-0.946;2023-05-10T04:22:18;23.80;37.60
56172;DHT22;42052;41.634;-0.946;2023-05-10T04:25:05;23.80;37.50
56172;DHT22;42052;41.634;-0.946;2023-05-10T04:27:52;23.80;37.60
56172;DHT22;42052;41.634;-0.946;2023-05-10T04:30:38;23.80;37.40
56172;DHT22;42052;41.634;-0.946;2023-05-10T04:33:24;23.80;37.40
56172;DHT22;42052;41.634;-0.946;2023-05-10T04:36:10;23.80;37.30
56172;DHT22;42052;41.634;-0.946;2023-05-10T04:38:56;23.80;37.40
56172;DHT22;42052;41.634;-0.946;2023-05-10T04:41:42;23.80;37.30
56172;DHT22;42052;41.634;-0.946;2023-05-10T04:44:29;23.80;37.30
56172;DHT22;42052;41.634;-0.946;2023-05-10T04:47:15;23.80;37.30
56172;DHT22;42052;41.634;-0.946;2023-05-10T04:50:02;23.80;37.40
56172;DHT22;42052;41.634;-0.946;2023-05-10T04:52:48;23.70;37.20
56172;DHT22;42052;41.634;-0.946;2023-05-10T04:55:34;23.80;37.20
56172;DHT22;42052;41.634;-0.946;2023-05-10T04:58:21;23.80;37.10
56172;DHT22;42052;41.634;-0.946;2023-05-10T05:01:07;23.80;37.10
56172;DHT22;42052;41.634;-0.946;2023-05-10T05:03:54;23.80;37.10
56172;DHT22;42052;41.634;-0.946;2023-05-10T05:06:40;23.80;37.10
56172;DHT22;42052;41.634;-0.946;2023-05-10T05:09:26;23.80;37.30
56172;DHT22;42052;41.634;-0.946;2023-05-10T05:12:12;23.80;37.40
56172;DHT22;42052;41.634;-0.946;2023-05-10T05:14:59;23.80;37.70
56172;DHT22;42052;41.634;-0.946;2023-05-10T05:17:46;23.70;37.70
56172;DHT22;42052;41.634;-0.946;2023-05-10T05:20:33;23.70;37.70
56172;DHT22;42052;41.634;-0.946;2023-05-10T05:23:20;23.70;37.60
56172;DHT22;42052;41.634;-0.946;2023-05-10T05:26:06;23.70;37.40
56172;DHT22;42052;41.634;-0.946;2023-05-10T05:28:52;23.70;38.40
56172;DHT22;42052;41.634;-0.946;2023-05-10T05:31:40;23.80;37.70
56172;DHT22;42052;41.634;-0.946;2023-05-10T05:34:26;23.80;38.00
56172;DHT22;42052;41.634;-0.946;2023-05-10T05:37:16;23.80;38.00
56172;DHT22;42052;41.634;-0.946;2023-05-10T05:40:03;23.80;38.10
56172;DHT22;42052;41.634;-0.946;2023-05-10T05:42:49;23.80;38.30
56172;DHT22;42052;41.634;-0.946;2023-05-10T05:45:35;23.80;38.40
56172;DHT22;42052;41.634;-0.946;2023-05-10T05:48:21;23.80;38.40
56172;DHT22;42052;41.634;-0.946;2023-05-10T05:51:07;23.80;38.50
56172;DHT22;42052;41.634;-0.946;2023-05-10T05:53:54;23.80;38.70
56172;DHT22;42052;41.634;-0.946;2023-05-10T05:56:40;23.80;38.40
56172;DHT22;42052;41.634;-0.946;2023-05-10T05:59:26;23.80;38.60
56172;DHT22;42052;41.634;-0.946;2023-05-10T06:02:13;23.80;38.60
56172;DHT22;42052;41.634;-0.946;2023-05-10T06:04:59;23.80;38.60
56172;DHT22;42052;41.634;-0.946;2023-05-10T06:07:45;23.80;38.70
56172;DHT22;42052;41.634;-0.946;2023-05-10T06:10:31;23.80;38.60
56172;DHT22;42052;41.634;-0.946;2023-05-10T06:13:17;23.80;38.60
56172;DHT22;42052;41.634;-0.946;2023-05-10T06:16:04;23.80;38.60
56172;DHT22;42052;41.634;-0.946;2023-05-10T06:18:50;23.80;38.70
56172;DHT22;42052;41.634;-0.946;2023-05-10T06:21:36;23.80;38.60
56172;DHT22;42052;41.634;-0.946;2023-05-10T06:24:22;23.80;38.60
56172;DHT22;42052;41.634;-0.946;2023-05-10T06:27:09;23.80;38.70
56172;DHT22;42052;41.634;-0.946;2023-05-10T06:29:55;23.80;38.70
56172;DHT22;42052;41.634;-0.946;2023-05-10T06:32:41;23.80;38.60
56172;DHT22;42052;41.634;-0.946;2023-05-10T06:35:29;23.80;38.70
56172;DHT22;42052;41.634;-0.946;2023-05-10T06:38:15;23.80;38.60
56172;DHT22;42052;41.634;-0.946;2023-05-10T06:41:01;23.80;38.70
56172;DHT22;42052;41.634;-0.946;2023-05-10T06:43:47;23.80;38.70
56172;DHT22;42052;41.634;-0.946;2023-05-10T06:46:34;23.80;38.70
56172;DHT22;42052;41.634;-0.946;2023-05-10T06:49:20;23.80;38.60
56172;DHT22;42052;41.634;-0.946;2023-05-10T06:52:06;23.80;38.60
56172;DHT22;42052;41.634;-0.946;2023-05-10T06:54:53;23.80;38.70
56172;DHT22;42052;41.634;-0.946;2023-05-10T06:57:39;23.80;38.60
56172;DHT22;42052;41.634;-0.946;2023-05-10T07:00:25;23.90;38.70
56172;DHT22;42052;41.634;-0.946;2023-05-10T07:03:11;23.80;38.60
56172;DHT22;42052;41.634;-0.946;2023-05-10T07:06:04;23.80;38.60
56172;DHT22;42052;41.634;-0.946;2023-05-10T07:08:50;23.90;38.70
56172;DHT22;42052;41.634;-0.946;2023-05-10T07:11:36;23.90;38.70
56172;DHT22;42052;41.634;-0.946;2023-05-10T07:14:23;23.90;38.70
56172;DHT22;42052;41.634;-0.946;2023-05-10T07:17:09;23.90;38.70
56172;DHT22;42052;41.634;-0.946;2023-05-10T07:19:55;23.80;38.50
56172;DHT22;42052;41.634;-0.946;2023-05-10T07:22:41;23.80;38.70
56172;DHT22;42052;41.634;-0.946;2023-05-10T07:25:28;23.80;38.60
56172;DHT22;42052;41.634;-0.946;2023-05-10T07:28:15;23.80;38.60
56172;DHT22;42052;41.634;-0.946;2023-05-10T07:31:01;23.80;38.50
56172;DHT22;42052;41.634;-0.946;2023-05-10T07:33:48;23.90;38.70
56172;DHT22;42052;41.634;-0.946;2023-05-10T07:36:34;23.80;38.70
56172;DHT22;42052;41.634;-0.946;2023-05-10T07:39:20;23.80;38.60
56172;DHT22;42052;41.634;-0.946;2023-05-10T07:42:06;23.80;38.60
56172;DHT22;42052;41.634;-0.946;2023-05-10T07:44:52;23.80;38.60
56172;DHT22;42052;41.634;-0.946;2023-05-10T07:47:39;23.80;38.60
56172;DHT22;42052;41.634;-0.946;2023-05-10T07:50:25;23.80;38.70
56172;DHT22;42052;41.634;-0.946;2023-05-10T07:53:11;23.80;38.70
56172;DHT22;42052;41.634;-0.946;2023-05-10T07:55:58;23.80;38.60
56172;DHT22;42052;41.634;-0.946;2023-05-10T07:58:44;23.80;38.60
56172;DHT22;42052;41.634;-0.946;2023-05-10T08:01:31;23.80;38.70
56172;DHT22;42052;41.634;-0.946;2023-05-10T08:04:20;23.80;38.50
56172;DHT22;42052;41.634;-0.946;2023-05-10T08:07:06;23.90;38.70
56172;DHT22;42052;41.634;-0.946;2023-05-10T08:09:53;23.90;38.70
56172;DHT22;42052;41.634;-0.946;2023-05-10T08:12:39;23.90;38.70
56172;DHT22;42052;41.634;-0.946;2023-05-10T08:15:25;23.90;38.60
56172;DHT22;42052;41.634;-0.946;2023-05-10T08:18:11;23.90;38.70
56172;DHT22;42052;41.634;-0.946;2023-05-10T08:20:57;23.90;38.60
56172;DHT22;42052;41.634;-0.946;2023-05-10T08:23:43;23.90;38.50
56172;DHT22;42052;41.634;-0.946;2023-05-10T08:26:30;23.90;38.70
56172;DHT22;42052;41.634;-0.946;2023-05-10T08:29:16;23.90;38.70
56172;DHT22;42052;41.634;-0.946;2023-05-10T08:32:03;23.90;38.50
56172;DHT22;42052;41.634;-0.946;2023-05-10T08:34:49;23.90;38.60
56172;DHT22;42052;41.634;-0.946;2023-05-10T08:37:35;23.90;38.50
56172;DHT22;42052;41.634;-0.946;2023-05-10T08:40:21;23.90;38.70
56172;DHT22;42052;41.634;-0.946;2023-05-10T08:43:11;23.90;38.50
56172;DHT22;42052;41.634;-0.946;2023-05-10T08:46:00;23.90;38.70
56172;DHT22;42052;41.634;-0.946;2023-05-10T08:48:50;23.90;38.60
56172;DHT22;42052;41.634;-0.946;2023-05-10T08:51:40;23.90;38.70
56172;DHT22;42052;41.634;-0.946;2023-05-10T08:54:26;23.90;38.50
56172;DHT22;42052;41.634;-0.946;2023-05-10T08:57:12;23.90;38.50
56172;DHT22;42052;41.634;-0.946;2023-05-10T09:00:00;23.90;38.60
56172;DHT22;42052;41.634;-0.946;2023-05-10T09:02:48;23.90;38.70
56172;DHT22;42052;41.634;-0.946;2023-05-10T09:05:36;23.90;38.60
56172;DHT22;42052;41.634;-0.946;2023-05-10T09:08:26;23.90;38.50
56172;DHT22;42052;41.634;-0.946;2023-05-10T09:11:12;23.90;38.70
56172;DHT22;42052;41.634;-0.946;2023-05-10T09:13:59;23.90;38.50
56172;DHT22;42052;41.634;-0.946;2023-05-10T09:16:45;24.00;38.70
56172;DHT22;42052;41.634;-0.946;2023-05-10T09:19:32;23.90;38.50
56172;DHT22;42052;41.634;-0.946;2023-05-10T09:22:18;24.00;38.50
56172;DHT22;42052;41.634;-0.946;2023-05-10T09:25:14;24.00;38.50
56172;DHT22;42052;41.634;-0.946;2023-05-10T09:28:01;24.00;38.50
56172;DHT22;42052;41.634;-0.946;2023-05-10T09:30:53;24.00;38.50
56172;DHT22;42052;41.634;-0.946;2023-05-10T09:33:46;24.00;38.50
56172;DHT22;42052;41.634;-0.946;2023-05-10T09:36:32;24.00;38.50
56172;DHT22;42052;41.634;-0.946;2023-05-10T09:39:19;24.00;38.50
56172;DHT22;42052;41.634;-0.946;2023-05-10T09:42:07;23.90;38.40
56172;DHT22;42052;41.634;-0.946;2023-05-10T09:44:53;24.00;38.50
56172;DHT22;42052;41.634;-0.946;2023-05-10T09:47:39;23.90;38.50
56172;DHT22;42052;41.634;-0.946;2023-05-10T09:50:26;24.00;38.50
56172;DHT22;42052;41.634;-0.946;2023-05-10T09:53:14;24.00;38.50
56172;DHT22;42052;41.634;-0.946;2023-05-10T09:56:01;24.00;38.60
56172;DHT22;42052;41.634;-0.946;2023-05-10T09:59:02;24.00;38.60
56172;DHT22;42052;41.634;-0.946;2023-05-10T10:01:51;24.00;38.60
56172;DHT22;42052;41.634;-0.946;2023-05-10T10:04:41;24.00;38.60
56172;DHT22;42052;41.634;-0.946;2023-05-10T10:07:27;24.00;39.30
56172;DHT22;42052;41.634;-0.946;2023-05-10T10:10:13;24.00;38.60
56172;DHT22;42052;41.634;-0.946;2023-05-10T10:13:00;24.00;38.50
56172;DHT22;42052;41.634;-0.946;2023-05-10T10:15:47;24.00;38.50
56172;DHT22;42052;41.634;-0.946;2023-05-10T10:18:36;24.00;38.70
56172;DHT22;42052;41.634;-0.946;2023-05-10T10:21:25;24.00;38.80
56172;DHT22;42052;41.634;-0.946;2023-05-10T10:24:12;24.00;38.80
56172;DHT22;42052;41.634;-0.946;2023-05-10T10:27:23;24.00;38.50
56172;DHT22;42052;41.634;-0.946;2023-05-10T10:36:46;24.00;38.60
56172;DHT22;42052;41.634;-0.946;2023-05-10T10:39:33;24.00;38.70
56172;DHT22;42052;41.634;-0.946;2023-05-10T10:42:44;24.00;38.60
56172;DHT22;42052;41.634;-0.946;2023-05-10T10:45:31;24.00;38.70
56172;DHT22;42052;41.634;-0.946;2023-05-10T10:48:22;24.00;38.80
56172;DHT22;42052;41.634;-0.946;2023-05-10T10:51:08;24.00;38.70
56172;DHT22;42052;41.634;-0.946;2023-05-10T10:54:09;24.00;38.60
56172;DHT22;42052;41.634;-0.946;2023-05-10T10:57:13;24.00;38.60
56172;DHT22;42052;41.634;-0.946;2023-05-10T11:03:11;24.00;38.60
56172;DHT22;42052;41.634;-0.946;2023-05-10T11:06:00;24.00;38.60
56172;DHT22;42052;41.634;-0.946;2023-05-10T11:08:47;24.00;38.60
56172;DHT22;42052;41.634;-0.946;2023-05-10T11:11:34;24.00;38.70
56172;DHT22;42052;41.634;-0.946;2023-05-10T11:14:21;24.00;38.80
56172;DHT22;42052;41.634;-0.946;2023-05-10T11:17:40;24.00;38.60
56172;DHT22;42052;41.634;-0.946;2023-05-10T11:20:28;24.10;38.80
56172;DHT22;42052;41.634;-0.946;2023-05-10T11:23:19;24.00;38.70
56172;DHT22;42052;41.634;-0.946;2023-05-10T11:26:08;24.00;38.70
56172;DHT22;42052;41.634;-0.946;2023-05-10T11:28:57;24.00;38.70
56172;DHT22;42052;41.634;-0.946;2023-05-10T11:31:47;24.00;38.60
56172;DHT22;42052;41.634;-0.946;2023-05-10T11:34:33;24.00;38.70
56172;DHT22;42052;41.634;-0.946;2023-05-10T11:37:19;24.00;38.80
56172;DHT22;42052;41.634;-0.946;2023-05-10T11:40:05;24.00;38.80
56172;DHT22;42052;41.634;-0.946;2023-05-10T11:42:52;24.10;38.80
56172;DHT22;42052;41.634;-0.946;2023-05-10T11:45:41;24.00;38.70
56172;DHT22;42052;41.634;-0.946;2023-05-10T11:48:29;24.10;38.80
56172;DHT22;42052;41.634;-0.946;2023-05-10T11:51:19;24.10;38.80
56172;DHT22;42052;41.634;-0.946;2023-05-10T11:54:07;24.00;38.70
56172;DHT22;42052;41.634;-0.946;2023-05-10T11:56:54;24.10;38.70
56172;DHT22;42052;41.634;-0.946;2023-05-10T11:59:40;24.10;38.80
56172;DHT22;42052;41.634;-0.946;2023-05-10T12:02:27;24.10;38.80
56172;DHT22;42052;41.634;-0.946;2023-05-10T12:05:13;24.00;38.70
56172;DHT22;42052;41.634;-0.946;2023-05-10T12:08:13;24.10;38.70
56172;DHT22;42052;41.634;-0.946;2023-05-10T12:11:08;24.10;38.60
56172;DHT22;42052;41.634;-0.946;2023-05-10T12:13:55;24.10;38.80
56172;DHT22;42052;41.634;-0.946;2023-05-10T12:16:43;24.10;38.60
56172;DHT22;42052;41.634;-0.946;2023-05-10T12:19:40;24.10;38.70
56172;DHT22;42052;41.634;-0.946;2023-05-10T12:22:26;24.10;38.70
56172;DHT22;42052;41.634;-0.946;2023-05-10T12:25:13;24.10;38.50
56172;DHT22;42052;41.634;-0.946;2023-05-10T12:28:00;24.00;38.70
56172;DHT22;42052;41.634;-0.946;2023-05-10T12:30:53;24.10;38.70
56172;DHT22;42052;41.634;-0.946;2023-05-10T12:33:42;24.10;38.70
56172;DHT22;42052;41.634;-0.946;2023-05-10T12:36:28;24.10;39.40
56172;DHT22;42052;41.634;-0.946;2023-05-10T12:39:14;24.10;38.60
56172;DHT22;42052;41.634;-0.946;2023-05-10T12:42:01;24.10;38.60
56172;DHT22;42052;41.634;-0.946;2023-05-10T12:44:47;24.10;38.50
56172;DHT22;42052;41.634;-0.946;2023-05-10T12:47:33;24.10;38.50
56172;DHT22;42052;41.634;-0.946;2023-05-10T12:50:20;24.10;38.60
56172;DHT22;42052;41.634;-0.946;2023-05-10T12:53:06;24.10;38.60
56172;DHT22;42052;41.634;-0.946;2023-05-10T12:55:52;24.10;38.60
56172;DHT22;42052;41.634;-0.946;2023-05-10T12:58:39;24.10;38.60
56172;DHT22;42052;41.634;-0.946;2023-05-10T13:01:25;24.10;38.70
56172;DHT22;42052;41.634;-0.946;2023-05-10T13:04:11;24.10;38.60
56172;DHT22;42052;41.634;-0.946;2023-05-10T13:06:57;24.10;38.50
56172;DHT22;42052;41.634;-0.946;2023-05-10T13:09:44;24.10;38.50
56172;DHT22;42052;41.634;-0.946;2023-05-10T13:12:30;24.10;38.60
56172;DHT22;42052;41.634;-0.946;2023-05-10T13:15:16;24.10;38.50
56172;DHT22;42052;41.634;-0.946;2023-05-10T13:18:02;24.10;38.50
56172;DHT22;42052;41.634;-0.946;2023-05-10T13:20:49;24.10;38.50
56172;DHT22;42052;41.634;-0.946;2023-05-10T13:23:35;24.10;38.50
56172;DHT22;42052;41.634;-0.946;2023-05-10T13:26:21;24.10;38.50
56172;DHT22;42052;41.634;-0.946;2023-05-10T13:29:07;24.10;38.50
56172;DHT22;42052;41.634;-0.946;2023-05-10T13:31:53;24.10;38.50
56172;DHT22;42052;41.634;-0.946;2023-05-10T13:34:40;24.10;38.50
56172;DHT22;42052;41.634;-0.946;2023-05-10T13:37:26;24.10;38.50
56172;DHT22;42052;41.634;-0.946;2023-05-10T13:40:12;24.10;38.50
56172;DHT22;42052;41.634;-0.946;2023-05-10T13:42:59;24.10;38.50
56172;DHT22;42052;41.634;-0.946;2023-05-10T13:45:45;24.10;38.40
56172;DHT22;42052;41.634;-0.946;2023-05-10T13:48:31;24.10;38.40
56172;DHT22;42052;41.634;-0.946;2023-05-10T13:51:18;24.10;38.40
56172;DHT22;42052;41.634;-0.946;2023-05-10T13:54:04;24.10;38.40
56172;DHT22;42052;41.634;-0.946;2023-05-10T13:56:50;24.10;38.40
56172;DHT22;42052;41.634;-0.946;2023-05-10T13:59:36;24.10;38.40
56172;DHT22;42052;41.634;-0.946;2023-05-10T14:02:23;24.10;38.50
56172;DHT22;42052;41.634;-0.946;2023-05-10T14:05:10;24.10;38.40
56172;DHT22;42052;41.634;-0.946;2023-05-10T14:07:56;24.10;38.50
56172;DHT22;42052;41.634;-0.946;2023-05-10T14:10:42;24.10;38.40
56172;DHT22;42052;41.634;-0.946;2023-05-10T14:13:29;24.10;38.50
56172;DHT22;42052;41.634;-0.946;2023-05-10T14:16:15;24.10;38.50
56172;DHT22;42052;41.634;-0.946;2023-05-10T14:19:01;24.10;38.40
56172;DHT22;42052;41.634;-0.946;2023-05-10T14:21:47;24.10;38.50
56172;DHT22;42052;41.634;-0.946;2023-05-10T14:24:33;24.10;38.40
56172;DHT22;42052;41.634;-0.946;2023-05-10T14:27:20;24.10;38.40
56172;DHT22;42052;41.634;-0.946;2023-05-10T14:30:06;24.10;38.50
56172;DHT22;42052;41.634;-0.946;2023-05-10T14:32:52;24.10;38.40
56172;DHT22;42052;41.634;-0.946;2023-05-10T14:35:39;24.10;38.50
56172;DHT22;42052;41.634;-0.946;2023-05-10T14:38:26;24.10;38.50
56172;DHT22;42052;41.634;-0.946;2023-05-10T14:41:12;24.10;38.50
56172;DHT22;42052;41.634;-0.946;2023-05-10T14:44:03;24.10;38.40
56172;DHT22;42052;41.634;-0.946;2023-05-10T14:46:49;24.10;38.40
56172;DHT22;42052;41.634;-0.946;2023-05-10T14:49:35;24.20;38.40
56172;DHT22;42052;41.634;-0.946;2023-05-10T14:52:21;24.10;38.30
56172;DHT22;42052;41.634;-0.946;2023-05-10T14:55:08;24.10;38.40
56172;DHT22;42052;41.634;-0.946;2023-05-10T14:57:54;24.20;39.10
56172;DHT22;42052;41.634;-0.946;2023-05-10T15:00:40;24.10;38.40
56172;DHT22;42052;41.634;-0.946;2023-05-10T15:03:27;24.10;38.40
56172;DHT22;42052;41.634;-0.946;2023-05-10T15:06:14;24.20;38.30
56172;DHT22;42052;41.634;-0.946;2023-05-10T15:09:02;24.20;38.40
56172;DHT22;42052;41.634;-0.946;2023-05-10T15:11:52;24.20;38.40
56172;DHT22;42052;41.634;-0.946;2023-05-10T15:14:38;24.20;39.10
56172;DHT22;42052;41.634;-0.946;2023-05-10T15:17:24;24.20;38.40
56172;DHT22;42052;41.634;-0.946;2023-05-10T15:20:10;24.20;38.40
56172;DHT22;42052;41.634;-0.946;2023-05-10T15:22:56;24.20;38.40
56172;DHT22;42052;41.634;-0.946;2023-05-10T15:25:43;24.20;38.40
56172;DHT22;42052;41.634;-0.946;2023-05-10T15:28:29;24.10;38.20
56172;DHT22;42052;41.634;-0.946;2023-05-10T15:31:15;24.20;38.20
56172;DHT22;42052;41.634;-0.946;2023-05-10T15:34:01;24.20;38.30
56172;DHT22;42052;41.634;-0.946;2023-05-10T15:36:47;24.20;38.30
56172;DHT22;42052;41.634;-0.946;2023-05-10T15:39:33;24.20;38.20
56172;DHT22;42052;41.634;-0.946;2023-05-10T15:42:19;24.10;38.20
56172;DHT22;42052;41.634;-0.946;2023-05-10T15:45:06;24.20;38.20
56172;DHT22;42052;41.634;-0.946;2023-05-10T15:47:52;24.20;38.20
56172;DHT22;42052;41.634;-0.946;2023-05-10T15:50:39;24.20;38.10
56172;DHT22;42052;41.634;-0.946;2023-05-10T15:53:25;24.20;38.20
56172;DHT22;42052;41.634;-0.946;2023-05-10T15:56:12;24.20;38.20
56172;DHT22;42052;41.634;-0.946;2023-05-10T15:58:59;24.20;38.10
56172;DHT22;42052;41.634;-0.946;2023-05-10T16:01:46;24.20;38.00
56172;DHT22;42052;41.634;-0.946;2023-05-10T16:04:32;24.20;38.20
56172;DHT22;42052;41.634;-0.946;2023-05-10T16:07:18;24.20;38.10
56172;DHT22;42052;41.634;-0.946;2023-05-10T16:10:04;24.20;38.20
56172;DHT22;42052;41.634;-0.946;2023-05-10T16:12:55;24.20;38.00
56172;DHT22;42052;41.634;-0.946;2023-05-10T16:15:42;24.20;38.10
56172;DHT22;42052;41.634;-0.946;2023-05-10T16:18:28;24.20;38.10
56172;DHT22;42052;41.634;-0.946;2023-05-10T16:21:14;24.20;38.20
56172;DHT22;42052;41.634;-0.946;2023-05-10T16:24:02;24.20;38.20
56172;DHT22;42052;41.634;-0.946;2023-05-10T16:26:48;24.20;38.20
56172;DHT22;42052;41.634;-0.946;2023-05-10T16:29:35;24.20;38.20
56172;DHT22;42052;41.634;-0.946;2023-05-10T16:32:21;24.20;38.20
56172;DHT22;42052;41.634;-0.946;2023-05-10T16:35:07;24.20;38.20
56172;DHT22;42052;41.634;-0.946;2023-05-10T16:37:54;24.20;38.20
56172;DHT22;42052;41.634;-0.946;2023-05-10T16:40:40;24.20;38.20
56172;DHT22;42052;41.634;-0.946;2023-05-10T16:43:26;24.20;38.10
56172;DHT22;42052;41.634;-0.946;2023-05-10T16:46:12;24.20;38.20
56172;DHT22;42052;41.634;-0.946;2023-05-10T16:48:59;24.20;38.10
56172;DHT22;42052;41.634;-0.946;2023-05-10T16:51:45;24.20;38.10
56172;DHT22;42052;41.634;-0.946;2023-05-10T16:54:31;24.20;38.10
56172;DHT22;42052;41.634;-0.946;2023-05-10T16:57:17;24.20;38.00
56172;DHT22;42052;41.634;-0.946;2023-05-10T17:00:04;24.20;38.10
56172;DHT22;42052;41.634;-0.946;2023-05-10T17:02:51;24.20;38.10
56172;DHT22;42052;41.634;-0.946;2023-05-10T17:05:39;24.20;38.10
56172;DHT22;42052;41.634;-0.946;2023-05-10T17:08:26;24.20;38.00
56172;DHT22;42052;41.634;-0.946;2023-05-10T17:11:12;24.20;37.90
56172;DHT22;42052;41.634;-0.946;2023-05-10T17:13:59;24.20;38.00
56172;DHT22;42052;41.634;-0.946;2023-05-10T17:16:45;24.20;38.00
56172;DHT22;42052;41.634;-0.946;2023-05-10T17:19:32;24.20;38.10
56172;DHT22;42052;41.634;-0.946;2023-05-10T17:22:18;24.20;38.00
56172;DHT22;42052;41.634;-0.946;2023-05-10T17:25:05;24.20;38.00
56172;DHT22;42052;41.634;-0.946;2023-05-10T17:27:51;24.20;38.00
56172;DHT22;42052;41.634;-0.946;2023-05-10T17:30:37;24.30;38.10
56172;DHT22;42052;41.634;-0.946;2023-05-10T17:33:23;24.20;38.00
56172;DHT22;42052;41.634;-0.946;2023-05-10T17:36:10;24.20;38.10
56172;DHT22;42052;41.634;-0.946;2023-05-10T17:38:56;24.20;38.00
56172;DHT22;42052;41.634;-0.946;2023-05-10T17:41:43;24.20;38.00
56172;DHT22;42052;41.634;-0.946;2023-05-10T17:44:29;24.20;38.00
56172;DHT22;42052;41.634;-0.946;2023-05-10T17:47:16;24.20;38.00
56172;DHT22;42052;41.634;-0.946;2023-05-10T17:50:03;24.20;38.00
56172;DHT22;42052;41.634;-0.946;2023-05-10T17:52:49;24.20;38.00